sensor_id;sensor_type;location;lat;lon;timestamp;temperature;humidity
19924;DHT22;10124;53.068;18.224;2022-08-01T00:00:49;11.30;99.90
19924;DHT22;10124;53.068;18.224;2022-08-01T00:03:16;11.20;99.90
19924;DHT22;10124;53.068;18.224;2022-08-01T00:05:43;11.20;99.90
19924;DHT22;10124;53.068;18.224;2022-08-01T00:08:12;11.20;99.90
19924;DHT22;10124;53.068;18.224;2022-08-01T00:10:39;11.20;99.90
19924;DHT22;10124;53.068;18.224;2022-08-01T00:13:06;11.10;99.90
19924;DHT22;10124;53.068;18.224;2022-08-01T00:15:36;11.20;99.90
19924;DHT22;10124;53.068;18.224;2022-08-01T00:18:03;11.10;99.90
19924;DHT22;10124;53.068;18.224;2022-08-01T00:20:30;11.10;99.90
19924;DHT22;10124;53.068;18.224;2022-08-01T00:22:58;11.10;99.90
19924;DHT22;10124;53.068;18.224;2022-08-01T00:25:25;11.10;99.90
19924;DHT22;10124;53.068;18.224;2022-08-01T00:28:01;11.00;99.90
19924;DHT22;10124;53.068;18.224;2022-08-01T00:30:30;11.00;99.90
19924;DHT22;10124;53.068;18.224;2022-08-01T00:32:58;11.60;99.90
19924;DHT22;10124;53.068;18.224;2022-08-01T00:35:25;11.00;99.90
19924;DHT22;10124;53.068;18.224;2022-08-01T00:37:52;11.00;99.90
19924;DHT22;10124;53.068;18.224;2022-08-01T00:40:20;11.00;99.90
19924;DHT22;10124;53.068;18.224;2022-08-01T00:42:47;11.00;99.90
19924;DHT22;10124;53.068;18.224;2022-08-01T00:45:15;11.00;99.90
19924;DHT22;10124;53.068;18.224;2022-08-01T00:47:42;10.90;99.90
19924;DHT22;10124;53.068;18.224;2022-08-01T00:50:10;11.00;99.90
19924;DHT22;10124;53.068;18.224;2022-08-01T00:52:39;11.00;99.90
19924;DHT22;10124;53.068;18.224;2022-08-01T00:55:08;11.00;99.90
19924;DHT22;10124;53.068;18.224;2022-08-01T00:57:41;11.00;99.90
19924;DHT22;10124;53.068;18.224;2022-08-01T01:00:29;11.00;99.90
19924;DHT22;10124;53.068;18.224;2022-08-01T01:02:59;10.90;99.90
19924;DHT22;10124;53.068;18.224;2022-08-01T01:05:27;10.90;99.90
19924;DHT22;10124;53.068;18.224;2022-08-01T01:07:59;10.90;99.90
19924;DHT22;10124;53.068;18.224;2022-08-01T01:10:40;10.90;99.90
19924;DHT22;10124;53.068;18.224;2022-08-01T01:13:18;10.90;99.90
19924;DHT22;10124;53.068;18.224;2022-08-01T01:15:51;10.80;99.90
19924;DHT22;10124;53.068;18.224;2022-08-01T01:18:24;10.80;99.90
19924;DHT22;10124;53.068;18.224;2022-08-01T01:21:00;10.80;99.90
19924;DHT22;10124;53.068;18.224;2022-08-01T01:23:54;10.70;99.90
19924;DHT22;10124;53.068;18.224;2022-08-01T01:29:38;10.60;99.90
19924;DHT22;10124;53.068;18.224;2022-08-01T01:32:33;10.60;99.90
19924;DHT22;10124;53.068;18.224;2022-08-01T01:35:06;10.60;99.90
19924;DHT22;10124;53.068;18.224;2022-08-01T01:37:35;10.50;99.90
19924;DHT22;10124;53.068;18.224;2022-08-01T01:40:06;10.50;1.00
19924;DHT22;10124;53.068;18.224;2022-08-01T01:42:34;10.60;1.00
19924;DHT22;10124;53.068;18.224;2022-08-01T01:45:04;10.60;99.90
19924;DHT22;10124;53.068;18.224;2022-08-01T01:47:32;10.50;99.90
19924;DHT22;10124;53.068;18.224;2022-08-01T01:50:03;10.50;99.90
19924;DHT22;10124;53.068;18.224;2022-08-01T01:52:32;10.40;99.90
19924;DHT22;10124;53.068;18.224;2022-08-01T01:54:59;10.30;99.90
19924;DHT22;10124;53.068;18.224;2022-08-01T01:57:29;10.40;1.00
19924;DHT22;10124;53.068;18.224;2022-08-01T01:59:58;10.30;99.90
19924;DHT22;10124;53.068;18.224;2022-08-01T02:02:27;10.30;1.00
19924;DHT22;10124;53.068;18.224;2022-08-01T02:04:55;10.20;1.00
19924;DHT22;10124;53.068;18.224;2022-08-01T02:07:24;10.20;1.00
19924;DHT22;10124;53.068;18.224;2022-08-01T02:09:54;10.20;1.00
19924;DHT22;10124;53.068;18.224;2022-08-01T02:12:22;10.20;1.00
19924;DHT22;10124;53.068;18.224;2022-08-01T02:14:52;10.20;1.00
19924;DHT22;10124;53.068;18.224;2022-08-01T02:17:21;10.50;1.00
19924;DHT22;10124;53.068;18.224;2022-08-01T02:19:49;10.00;1.00
19924;DHT22;10124;53.068;18.224;2022-08-01T02:22:21;10.00;1.00
19924;DHT22;10124;53.068;18.224;2022-08-01T02:25:02;10.00;1.00
19924;DHT22;10124;53.068;18.224;2022-08-01T02:27:39;9.90;99.90
19924;DHT22;10124;53.068;18.224;2022-08-01T02:30:08;9.90;1.00
19924;DHT22;10124;53.068;18.224;2022-08-01T02:32:47;10.00;1.00
19924;DHT22;10124;53.068;18.224;2022-08-01T02:35:26;10.00;1.00
19924;DHT22;10124;53.068;18.224;2022-08-01T02:37:56;10.00;1.00
19924;DHT22;10124;53.068;18.224;2022-08-01T02:40:27;10.50;1.00
19924;DHT22;10124;53.068;18.224;2022-08-01T02:42:56;9.90;1.00
19924;DHT22;10124;53.068;18.224;2022-08-01T02:45:25;9.90;1.00
19924;DHT22;10124;53.068;18.224;2022-08-01T02:47:57;9.80;1.00
19924;DHT22;10124;53.068;18.224;2022-08-01T02:50:27;9.90;1.00
19924;DHT22;10124;53.068;18.224;2022-08-01T02:52:56;9.80;1.00
19924;DHT22;10124;53.068;18.224;2022-08-01T02:55:25;9.90;1.00
19924;DHT22;10124;53.068;18.224;2022-08-01T02:57:54;9.90;1.00
19924;DHT22;10124;53.068;18.224;2022-08-01T03:00:26;9.80;1.00
19924;DHT22;10124;53.068;18.224;2022-08-01T03:02:56;9.90;1.00
19924;DHT22;10124;53.068;18.224;2022-08-01T03:05:25;9.80;1.00
19924;DHT22;10124;53.068;18.224;2022-08-01T03:07:55;9.80;1.00
19924;DHT22;10124;53.068;18.224;2022-08-01T03:10:29;9.70;1.00
19924;DHT22;10124;53.068;18.224;2022-08-01T03:12:59;9.70;1.00
19924;DHT22;10124;53.068;18.224;2022-08-01T03:15:28;9.60;1.00
19924;DHT22;10124;53.068;18.224;2022-08-01T03:17:59;9.60;1.00
19924;DHT22;10124;53.068;18.224;2022-08-01T03:20:29;9.70;1.00
19924;DHT22;10124;53.068;18.224;2022-08-01T03:22:57;9.70;1.00
19924;DHT22;10124;53.068;18.224;2022-08-01T03:25:27;9.70;1.00
19924;DHT22;10124;53.068;18.224;2022-08-01T03:27:59;9.70;1.00
19924;DHT22;10124;53.068;18.224;2022-08-01T03:30:29;9.70;1.00
19924;DHT22;10124;53.068;18.224;2022-08-01T03:32:58;9.80;1.00
19924;DHT22;10124;53.068;18.224;2022-08-01T03:35:31;9.80;1.00
19924;DHT22;10124;53.068;18.224;2022-08-01T03:38:01;9.80;1.00
19924;DHT22;10124;53.068;18.224;2022-08-01T03:40:53;9.80;1.00
19924;DHT22;10124;53.068;18.224;2022-08-01T03:43:37;9.90;1.00
19924;DHT22;10124;53.068;18.224;2022-08-01T03:46:11;9.80;1.00
19924;DHT22;10124;53.068;18.224;2022-08-01T03:48:42;9.90;1.00
19924;DHT22;10124;53.068;18.224;2022-08-01T03:51:12;9.90;1.00
19924;DHT22;10124;53.068;18.224;2022-08-01T03:53:42;10.10;1.00
19924;DHT22;10124;53.068;18.224;2022-08-01T03:56:12;10.10;1.00
19924;DHT22;10124;53.068;18.224;2022-08-01T03:58:43;10.10;1.00
19924;DHT22;10124;53.068;18.224;2022-08-01T04:01:17;10.20;1.00
19924;DHT22;10124;53.068;18.224;2022-08-01T04:03:45;10.30;1.00
19924;DHT22;10124;53.068;18.224;2022-08-01T04:06:12;10.40;1.00
19924;DHT22;10124;53.068;18.224;2022-08-01T04:08:41;10.40;1.00
19924;DHT22;10124;53.068;18.224;2022-08-01T04:11:09;10.50;1.00
19924;DHT22;10124;53.068;18.224;2022-08-01T04:13:37;10.80;1.00
19924;DHT22;10124;53.068;18.224;2022-08-01T04:16:10;11.10;1.00
19924;DHT22;10124;53.068;18.224;2022-08-01T04:18:37;10.80;1.00
19924;DHT22;10124;53.068;18.224;2022-08-01T04:21:04;10.90;1.00
19924;DHT22;10124;53.068;18.224;2022-08-01T04:23:33;11.00;1.00
19924;DHT22;10124;53.068;18.224;2022-08-01T04:26:09;11.10;1.00
19924;DHT22;10124;53.068;18.224;2022-08-01T04:28:38;11.20;1.00
19924;DHT22;10124;53.068;18.224;2022-08-01T04:31:09;11.40;1.00
19924;DHT22;10124;53.068;18.224;2022-08-01T04:33:38;11.50;1.00
19924;DHT22;10124;53.068;18.224;2022-08-01T04:36:10;11.60;1.00
19924;DHT22;10124;53.068;18.224;2022-08-01T04:38:40;11.80;1.00
19924;DHT22;10124;53.068;18.224;2022-08-01T04:41:12;12.00;1.00
19924;DHT22;10124;53.068;18.224;2022-08-01T04:43:40;12.20;1.00
19924;DHT22;10124;53.068;18.224;2022-08-01T04:46:11;12.40;1.00
19924;DHT22;10124;53.068;18.224;2022-08-01T04:48:39;12.50;1.00
19924;DHT22;10124;53.068;18.224;2022-08-01T04:51:14;13.50;1.00
19924;DHT22;10124;53.068;18.224;2022-08-01T04:53:44;12.90;1.00
19924;DHT22;10124;53.068;18.224;2022-08-01T04:56:15;13.00;1.00
19924;DHT22;10124;53.068;18.224;2022-08-01T04:58:43;13.90;1.00
19924;DHT22;10124;53.068;18.224;2022-08-01T05:01:11;13.80;1.00
19924;DHT22;10124;53.068;18.224;2022-08-01T05:03:45;13.40;99.90
19924;DHT22;10124;53.068;18.224;2022-08-01T05:06:12;13.50;99.90
19924;DHT22;10124;53.068;18.224;2022-08-01T05:08:40;13.60;98.30
19924;DHT22;10124;53.068;18.224;2022-08-01T05:11:08;13.70;1.00
19924;DHT22;10124;53.068;18.224;2022-08-01T05:13:35;13.80;1.00
19924;DHT22;10124;53.068;18.224;2022-08-01T05:16:03;14.00;1.00
19924;DHT22;10124;53.068;18.224;2022-08-01T05:18:31;14.10;41.60
19924;DHT22;10124;53.068;18.224;2022-08-01T05:20:58;14.20;1.00
19924;DHT22;10124;53.068;18.224;2022-08-01T05:23:25;14.30;1.00
19924;DHT22;10124;53.068;18.224;2022-08-01T05:26:10;14.40;1.00
19924;DHT22;10124;53.068;18.224;2022-08-01T05:28:41;14.40;1.00
19924;DHT22;10124;53.068;18.224;2022-08-01T05:31:08;14.50;1.00
19924;DHT22;10124;53.068;18.224;2022-08-01T05:33:36;14.60;99.90
19924;DHT22;10124;53.068;18.224;2022-08-01T05:36:04;14.60;99.90
19924;DHT22;10124;53.068;18.224;2022-08-01T05:38:39;14.70;99.90
19924;DHT22;10124;53.068;18.224;2022-08-01T05:41:06;14.70;99.90
19924;DHT22;10124;53.068;18.224;2022-08-01T05:43:33;14.70;99.90
19924;DHT22;10124;53.068;18.224;2022-08-01T05:46:01;14.70;99.90
19924;DHT22;10124;53.068;18.224;2022-08-01T05:48:28;14.70;99.90
19924;DHT22;10124;53.068;18.224;2022-08-01T05:50:56;14.80;99.90
19924;DHT22;10124;53.068;18.224;2022-08-01T05:53:25;14.90;99.90
19924;DHT22;10124;53.068;18.224;2022-08-01T05:55:52;15.00;99.90
19924;DHT22;10124;53.068;18.224;2022-08-01T05:58:19;15.10;99.90
19924;DHT22;10124;53.068;18.224;2022-08-01T06:00:47;15.20;99.90
19924;DHT22;10124;53.068;18.224;2022-08-01T06:03:14;15.30;99.90
19924;DHT22;10124;53.068;18.224;2022-08-01T06:05:41;15.40;99.90
19924;DHT22;10124;53.068;18.224;2022-08-01T06:08:08;15.40;99.90
19924;DHT22;10124;53.068;18.224;2022-08-01T06:10:40;15.50;99.90
19924;DHT22;10124;53.068;18.224;2022-08-01T06:13:07;15.60;99.90
19924;DHT22;10124;53.068;18.224;2022-08-01T06:15:35;15.60;99.90
19924;DHT22;10124;53.068;18.224;2022-08-01T06:18:02;15.60;99.90
19924;DHT22;10124;53.068;18.224;2022-08-01T06:20:31;15.60;99.90
19924;DHT22;10124;53.068;18.224;2022-08-01T06:22:59;15.70;99.90
19924;DHT22;10124;53.068;18.224;2022-08-01T06:25:31;15.70;99.90
19924;DHT22;10124;53.068;18.224;2022-08-01T06:27:59;15.90;99.90
19924;DHT22;10124;53.068;18.224;2022-08-01T06:30:27;15.80;99.90
19924;DHT22;10124;53.068;18.224;2022-08-01T06:33:13;15.80;99.90
19924;DHT22;10124;53.068;18.224;2022-08-01T06:35:41;16.00;99.90
19924;DHT22;10124;53.068;18.224;2022-08-01T06:38:08;16.00;99.90
19924;DHT22;10124;53.068;18.224;2022-08-01T06:40:36;16.20;99.30
19924;DHT22;10124;53.068;18.224;2022-08-01T06:43:06;16.30;99.90
19924;DHT22;10124;53.068;18.224;2022-08-01T06:45:33;16.40;92.70
19924;DHT22;10124;53.068;18.224;2022-08-01T06:48:00;16.60;86.90
19924;DHT22;10124;53.068;18.224;2022-08-01T06:50:28;16.80;66.80
19924;DHT22;10124;53.068;18.224;2022-08-01T06:52:55;16.90;23.60
19924;DHT22;10124;53.068;18.224;2022-08-01T06:55:23;17.00;1.00
19924;DHT22;10124;53.068;18.224;2022-08-01T06:57:52;17.10;1.00
19924;DHT22;10124;53.068;18.224;2022-08-01T07:00:22;17.20;1.00
19924;DHT22;10124;53.068;18.224;2022-08-01T07:02:55;17.30;1.00
19924;DHT22;10124;53.068;18.224;2022-08-01T07:05:24;17.40;1.00
19924;DHT22;10124;53.068;18.224;2022-08-01T07:07:57;17.50;1.00
19924;DHT22;10124;53.068;18.224;2022-08-01T07:10:25;17.50;1.00
19924;DHT22;10124;53.068;18.224;2022-08-01T07:12:55;17.60;1.00
19924;DHT22;10124;53.068;18.224;2022-08-01T07:15:27;17.80;1.00
19924;DHT22;10124;53.068;18.224;2022-08-01T07:17:56;17.80;1.00
19924;DHT22;10124;53.068;18.224;2022-08-01T07:20:25;17.90;1.00
19924;DHT22;10124;53.068;18.224;2022-08-01T07:22:53;17.90;1.00
19924;DHT22;10124;53.068;18.224;2022-08-01T07:25:22;18.30;1.00
19924;DHT22;10124;53.068;18.224;2022-08-01T07:27:51;18.50;1.00
19924;DHT22;10124;53.068;18.224;2022-08-01T07:30:19;18.90;1.00
19924;DHT22;10124;53.068;18.224;2022-08-01T07:32:47;19.10;1.00
19924;DHT22;10124;53.068;18.224;2022-08-01T07:35:29;19.40;1.00
19924;DHT22;10124;53.068;18.224;2022-08-01T07:37:57;19.70;92.60
19924;DHT22;10124;53.068;18.224;2022-08-01T07:40:25;19.70;1.00
19924;DHT22;10124;53.068;18.224;2022-08-01T07:42:52;19.50;1.00
19924;DHT22;10124;53.068;18.224;2022-08-01T07:45:20;19.60;1.00
19924;DHT22;10124;53.068;18.224;2022-08-01T07:47:47;19.40;1.00
19924;DHT22;10124;53.068;18.224;2022-08-01T07:50:16;19.40;1.00
19924;DHT22;10124;53.068;18.224;2022-08-01T07:52:44;19.30;1.00
19924;DHT22;10124;53.068;18.224;2022-08-01T07:55:13;19.20;1.00
19924;DHT22;10124;53.068;18.224;2022-08-01T07:57:42;19.10;1.00
19924;DHT22;10124;53.068;18.224;2022-08-01T08:00:10;19.50;1.00
19924;DHT22;10124;53.068;18.224;2022-08-01T08:07:27;18.90;1.00
19924;DHT22;10124;53.068;18.224;2022-08-01T08:09:55;18.90;1.00
19924;DHT22;10124;53.068;18.224;2022-08-01T08:12:23;18.80;1.00
19924;DHT22;10124;53.068;18.224;2022-08-01T08:14:56;18.90;1.00
19924;DHT22;10124;53.068;18.224;2022-08-01T08:17:30;19.00;1.00
19924;DHT22;10124;53.068;18.224;2022-08-01T08:24:36;19.30;1.00
19924;DHT22;10124;53.068;18.224;2022-08-01T08:27:13;19.40;1.00
19924;DHT22;10124;53.068;18.224;2022-08-01T08:29:41;19.40;1.00
19924;DHT22;10124;53.068;18.224;2022-08-01T08:32:08;19.50;1.00
19924;DHT22;10124;53.068;18.224;2022-08-01T08:34:37;19.50;1.00
19924;DHT22;10124;53.068;18.224;2022-08-01T08:37:04;19.80;1.00
19924;DHT22;10124;53.068;18.224;2022-08-01T08:39:34;19.80;1.00
19924;DHT22;10124;53.068;18.224;2022-08-01T08:42:10;20.00;1.00
19924;DHT22;10124;53.068;18.224;2022-08-01T08:44:41;20.20;1.00
19924;DHT22;10124;53.068;18.224;2022-08-01T08:47:12;20.50;1.00
19924;DHT22;10124;53.068;18.224;2022-08-01T08:49:46;20.50;1.00
19924;DHT22;10124;53.068;18.224;2022-08-01T08:52:18;20.90;1.00
19924;DHT22;10124;53.068;18.224;2022-08-01T08:54:48;20.90;1.00
19924;DHT22;10124;53.068;18.224;2022-08-01T08:57:19;21.20;1.00
19924;DHT22;10124;53.068;18.224;2022-08-01T08:59:47;21.40;1.00
19924;DHT22;10124;53.068;18.224;2022-08-01T09:02:16;21.70;1.00
19924;DHT22;10124;53.068;18.224;2022-08-01T09:04:48;21.70;1.00
19924;DHT22;10124;53.068;18.224;2022-08-01T09:07:17;21.60;1.00
19924;DHT22;10124;53.068;18.224;2022-08-01T09:09:47;21.80;1.00
19924;DHT22;10124;53.068;18.224;2022-08-01T09:12:22;21.90;1.00
19924;DHT22;10124;53.068;18.224;2022-08-01T09:15:01;21.80;1.00
19924;DHT22;10124;53.068;18.224;2022-08-01T09:17:39;21.70;1.00
19924;DHT22;10124;53.068;18.224;2022-08-01T09:20:22;21.40;1.00
19924;DHT22;10124;53.068;18.224;2022-08-01T09:22:50;21.40;1.00
19924;DHT22;10124;53.068;18.224;2022-08-01T09:25:17;21.40;1.00
19924;DHT22;10124;53.068;18.224;2022-08-01T09:27:45;21.30;1.00
19924;DHT22;10124;53.068;18.224;2022-08-01T09:30:16;21.30;1.00
19924;DHT22;10124;53.068;18.224;2022-08-01T09:37:30;20.80;1.00
19924;DHT22;10124;53.068;18.224;2022-08-01T09:40:03;20.70;1.00
19924;DHT22;10124;53.068;18.224;2022-08-01T09:42:34;20.60;1.00
19924;DHT22;10124;53.068;18.224;2022-08-01T09:45:03;20.90;1.00
19924;DHT22;10124;53.068;18.224;2022-08-01T09:47:38;20.50;1.00
19924;DHT22;10124;53.068;18.224;2022-08-01T09:50:07;20.60;1.00
19924;DHT22;10124;53.068;18.224;2022-08-01T09:52:37;20.70;1.00
19924;DHT22;10124;53.068;18.224;2022-08-01T09:55:09;20.80;1.00
19924;DHT22;10124;53.068;18.224;2022-08-01T09:57:37;20.80;1.00
19924;DHT22;10124;53.068;18.224;2022-08-01T10:00:17;20.70;1.00
19924;DHT22;10124;53.068;18.224;2022-08-01T10:03:24;20.70;1.00
19924;DHT22;10124;53.068;18.224;2022-08-01T10:05:55;20.60;1.00
19924;DHT22;10124;53.068;18.224;2022-08-01T10:08:26;20.70;1.00
19924;DHT22;10124;53.068;18.224;2022-08-01T10:11:09;20.80;1.00
19924;DHT22;10124;53.068;18.224;2022-08-01T10:13:39;21.00;1.00
19924;DHT22;10124;53.068;18.224;2022-08-01T10:16:06;21.30;1.00
19924;DHT22;10124;53.068;18.224;2022-08-01T10:18:35;21.60;1.00
19924;DHT22;10124;53.068;18.224;2022-08-01T10:21:08;21.60;1.00
19924;DHT22;10124;53.068;18.224;2022-08-01T10:28:14;22.20;1.00
19924;DHT22;10124;53.068;18.224;2022-08-01T10:30:48;22.70;1.00
19924;DHT22;10124;53.068;18.224;2022-08-01T10:33:22;22.90;1.00
19924;DHT22;10124;53.068;18.224;2022-08-01T10:36:10;23.00;1.00
19924;DHT22;10124;53.068;18.224;2022-08-01T10:38:37;23.10;1.00
19924;DHT22;10124;53.068;18.224;2022-08-01T10:41:05;23.30;1.00
19924;DHT22;10124;53.068;18.224;2022-08-01T10:43:35;23.40;1.00
19924;DHT22;10124;53.068;18.224;2022-08-01T10:46:06;23.50;1.00
19924;DHT22;10124;53.068;18.224;2022-08-01T10:48:45;23.90;1.00
19924;DHT22;10124;53.068;18.224;2022-08-01T10:51:15;23.80;1.00
19924;DHT22;10124;53.068;18.224;2022-08-01T10:53:52;24.00;1.00
19924;DHT22;10124;53.068;18.224;2022-08-01T10:56:22;24.30;1.00
19924;DHT22;10124;53.068;18.224;2022-08-01T10:59:03;24.30;1.00
19924;DHT22;10124;53.068;18.224;2022-08-01T11:01:38;24.20;1.00
19924;DHT22;10124;53.068;18.224;2022-08-01T11:04:14;24.10;1.00
19924;DHT22;10124;53.068;18.224;2022-08-01T11:09:27;24.10;1.00
19924;DHT22;10124;53.068;18.224;2022-08-01T11:20:14;25.20;1.00
19924;DHT22;10124;53.068;18.224;2022-08-01T11:28:25;25.80;1.00
19924;DHT22;10124;53.068;18.224;2022-08-01T11:38:46;27.50;1.00
19924;DHT22;10124;53.068;18.224;2022-08-01T11:47:03;28.70;1.00
19924;DHT22;10124;53.068;18.224;2022-08-01T11:52:13;28.60;1.00
19924;DHT22;10124;53.068;18.224;2022-08-01T11:55:09;28.50;1.00
19924;DHT22;10124;53.068;18.224;2022-08-01T11:57:38;29.00;1.00
19924;DHT22;10124;53.068;18.224;2022-08-01T12:00:15;29.60;1.00
19924;DHT22;10124;53.068;18.224;2022-08-01T12:02:59;30.30;1.00
19924;DHT22;10124;53.068;18.224;2022-08-01T12:05:32;31.20;1.00
19924;DHT22;10124;53.068;18.224;2022-08-01T12:08:02;31.60;1.00
19924;DHT22;10124;53.068;18.224;2022-08-01T12:10:34;31.80;1.00
19924;DHT22;10124;53.068;18.224;2022-08-01T12:13:16;31.70;1.00
19924;DHT22;10124;53.068;18.224;2022-08-01T12:15:46;31.40;1.00
19924;DHT22;10124;53.068;18.224;2022-08-01T12:18:13;31.80;1.00
19924;DHT22;10124;53.068;18.224;2022-08-01T12:20:43;31.90;1.00
19924;DHT22;10124;53.068;18.224;2022-08-01T12:23:23;32.20;1.00
19924;DHT22;10124;53.068;18.224;2022-08-01T12:25:52;33.20;1.00
19924;DHT22;10124;53.068;18.224;2022-08-01T12:28:20;32.90;1.00
19924;DHT22;10124;53.068;18.224;2022-08-01T12:30:48;32.30;1.00
19924;DHT22;10124;53.068;18.224;2022-08-01T12:33:20;32.60;1.00
19924;DHT22;10124;53.068;18.224;2022-08-01T12:35:48;31.90;1.00
19924;DHT22;10124;53.068;18.224;2022-08-01T12:38:18;31.40;1.00
19924;DHT22;10124;53.068;18.224;2022-08-01T12:40:47;30.60;1.00
19924;DHT22;10124;53.068;18.224;2022-08-01T12:43:22;30.30;1.00
19924;DHT22;10124;53.068;18.224;2022-08-01T12:45:57;30.40;1.00
19924;DHT22;10124;53.068;18.224;2022-08-01T12:48:26;30.30;1.00
19924;DHT22;10124;53.068;18.224;2022-08-01T12:50:55;30.40;1.00
19924;DHT22;10124;53.068;18.224;2022-08-01T12:53:25;30.10;1.00
19924;DHT22;10124;53.068;18.224;2022-08-01T12:56:08;30.20;1.00
19924;DHT22;10124;53.068;18.224;2022-08-01T12:58:38;29.90;1.00
19924;DHT22;10124;53.068;18.224;2022-08-01T13:01:08;29.40;1.00
19924;DHT22;10124;53.068;18.224;2022-08-01T13:03:36;29.30;1.00
19924;DHT22;10124;53.068;18.224;2022-08-01T13:06:14;29.60;1.00
19924;DHT22;10124;53.068;18.224;2022-08-01T13:08:44;29.50;1.00
19924;DHT22;10124;53.068;18.224;2022-08-01T13:11:14;29.60;1.00
19924;DHT22;10124;53.068;18.224;2022-08-01T13:13:44;29.50;1.00
19924;DHT22;10124;53.068;18.224;2022-08-01T13:16:17;29.20;1.00
19924;DHT22;10124;53.068;18.224;2022-08-01T13:19:04;29.10;1.00
19924;DHT22;10124;53.068;18.224;2022-08-01T13:21:33;29.30;1.00
19924;DHT22;10124;53.068;18.224;2022-08-01T13:24:26;29.60;1.00
19924;DHT22;10124;53.068;18.224;2022-08-01T13:27:00;29.70;1.00
19924;DHT22;10124;53.068;18.224;2022-08-01T13:29:34;30.00;1.00
19924;DHT22;10124;53.068;18.224;2022-08-01T13:32:18;29.70;1.00
19924;DHT22;10124;53.068;18.224;2022-08-01T13:35:03;29.90;1.00
19924;DHT22;10124;53.068;18.224;2022-08-01T13:37:32;29.60;1.00
19924;DHT22;10124;53.068;18.224;2022-08-01T13:40:06;29.50;1.00
19924;DHT22;10124;53.068;18.224;2022-08-01T13:42:35;29.40;1.00
19924;DHT22;10124;53.068;18.224;2022-08-01T13:45:03;28.70;1.00
19924;DHT22;10124;53.068;18.224;2022-08-01T13:47:42;28.50;1.00
19924;DHT22;10124;53.068;18.224;2022-08-01T13:50:30;28.50;1.00
19924;DHT22;10124;53.068;18.224;2022-08-01T13:52:57;28.10;1.00
19924;DHT22;10124;53.068;18.224;2022-08-01T13:55:26;28.00;1.00
19924;DHT22;10124;53.068;18.224;2022-08-01T13:58:00;27.80;1.00
19924;DHT22;10124;53.068;18.224;2022-08-01T14:00:28;27.70;1.00
19924;DHT22;10124;53.068;18.224;2022-08-01T14:02:55;27.30;1.00
19924;DHT22;10124;53.068;18.224;2022-08-01T14:05:23;27.20;1.00
19924;DHT22;10124;53.068;18.224;2022-08-01T14:07:52;27.30;1.00
19924;DHT22;10124;53.068;18.224;2022-08-01T14:10:23;27.30;1.00
19924;DHT22;10124;53.068;18.224;2022-08-01T14:12:51;27.50;1.00
19924;DHT22;10124;53.068;18.224;2022-08-01T14:15:22;27.50;1.00
19924;DHT22;10124;53.068;18.224;2022-08-01T14:18:07;27.70;1.00
19924;DHT22;10124;53.068;18.224;2022-08-01T14:20:36;27.40;1.00
19924;DHT22;10124;53.068;18.224;2022-08-01T14:23:04;27.50;1.00
19924;DHT22;10124;53.068;18.224;2022-08-01T14:25:40;27.80;1.00
19924;DHT22;10124;53.068;18.224;2022-08-01T14:28:27;27.70;1.00
19924;DHT22;10124;53.068;18.224;2022-08-01T14:30:57;27.60;1.00
19924;DHT22;10124;53.068;18.224;2022-08-01T14:33:25;27.90;1.00
19924;DHT22;10124;53.068;18.224;2022-08-01T14:35:53;28.00;1.00
19924;DHT22;10124;53.068;18.224;2022-08-01T14:38:41;27.90;1.00
19924;DHT22;10124;53.068;18.224;2022-08-01T14:41:13;28.10;1.00
19924;DHT22;10124;53.068;18.224;2022-08-01T14:43:40;28.40;1.00
19924;DHT22;10124;53.068;18.224;2022-08-01T14:46:08;28.80;1.00
19924;DHT22;10124;53.068;18.224;2022-08-01T14:48:37;28.80;1.00
19924;DHT22;10124;53.068;18.224;2022-08-01T14:51:04;28.90;1.00
19924;DHT22;10124;53.068;18.224;2022-08-01T14:53:35;28.60;1.00
19924;DHT22;10124;53.068;18.224;2022-08-01T14:56:03;28.70;1.00
19924;DHT22;10124;53.068;18.224;2022-08-01T14:58:31;28.60;1.00
19924;DHT22;10124;53.068;18.224;2022-08-01T15:00:58;28.40;1.00
19924;DHT22;10124;53.068;18.224;2022-08-01T15:03:26;28.60;1.00
19924;DHT22;10124;53.068;18.224;2022-08-01T15:05:53;28.90;1.00
19924;DHT22;10124;53.068;18.224;2022-08-01T15:08:21;28.50;1.00
19924;DHT22;10124;53.068;18.224;2022-08-01T15:10:48;28.30;1.00
19924;DHT22;10124;53.068;18.224;2022-08-01T15:13:16;27.90;1.00
19924;DHT22;10124;53.068;18.224;2022-08-01T15:15:43;27.80;1.00
19924;DHT22;10124;53.068;18.224;2022-08-01T15:18:11;27.70;1.00
19924;DHT22;10124;53.068;18.224;2022-08-01T15:20:38;27.70;1.00
19924;DHT22;10124;53.068;18.224;2022-08-01T15:23:06;27.50;1.00
19924;DHT22;10124;53.068;18.224;2022-08-01T15:25:33;27.20;1.00
19924;DHT22;10124;53.068;18.224;2022-08-01T15:28:11;26.90;1.00
19924;DHT22;10124;53.068;18.224;2022-08-01T15:30:39;26.90;1.00
19924;DHT22;10124;53.068;18.224;2022-08-01T15:33:07;26.70;1.00
19924;DHT22;10124;53.068;18.224;2022-08-01T15:35:36;26.60;1.00
19924;DHT22;10124;53.068;18.224;2022-08-01T15:38:03;26.60;1.00
19924;DHT22;10124;53.068;18.224;2022-08-01T15:40:31;26.50;1.00
19924;DHT22;10124;53.068;18.224;2022-08-01T15:43:02;26.30;1.00
19924;DHT22;10124;53.068;18.224;2022-08-01T15:45:29;26.30;1.00
19924;DHT22;10124;53.068;18.224;2022-08-01T15:48:15;26.30;1.00
19924;DHT22;10124;53.068;18.224;2022-08-01T15:50:43;26.20;1.00
19924;DHT22;10124;53.068;18.224;2022-08-01T15:53:16;26.00;1.00
19924;DHT22;10124;53.068;18.224;2022-08-01T15:55:47;25.80;1.00
19924;DHT22;10124;53.068;18.224;2022-08-01T15:58:43;25.90;1.00
19924;DHT22;10124;53.068;18.224;2022-08-01T16:01:10;26.00;1.00
19924;DHT22;10124;53.068;18.224;2022-08-01T16:03:38;25.90;1.00
19924;DHT22;10124;53.068;18.224;2022-08-01T16:06:05;25.90;1.00
19924;DHT22;10124;53.068;18.224;2022-08-01T16:08:34;25.80;1.00
19924;DHT22;10124;53.068;18.224;2022-08-01T16:11:01;25.70;1.00
19924;DHT22;10124;53.068;18.224;2022-08-01T16:13:31;25.90;1.00
19924;DHT22;10124;53.068;18.224;2022-08-01T16:16:00;25.80;1.00
19924;DHT22;10124;53.068;18.224;2022-08-01T16:18:32;25.80;1.00
19924;DHT22;10124;53.068;18.224;2022-08-01T16:21:03;25.90;1.00
19924;DHT22;10124;53.068;18.224;2022-08-01T16:23:31;25.90;1.00
19924;DHT22;10124;53.068;18.224;2022-08-01T16:25:58;25.80;1.00
19924;DHT22;10124;53.068;18.224;2022-08-01T16:28:26;25.80;1.00
19924;DHT22;10124;53.068;18.224;2022-08-01T16:31:03;25.80;1.00
19924;DHT22;10124;53.068;18.224;2022-08-01T16:33:51;25.70;1.00
19924;DHT22;10124;53.068;18.224;2022-08-01T16:36:28;25.50;1.00
19924;DHT22;10124;53.068;18.224;2022-08-01T16:38:56;25.40;1.00
19924;DHT22;10124;53.068;18.224;2022-08-01T16:41:23;25.40;1.00
19924;DHT22;10124;53.068;18.224;2022-08-01T16:43:51;25.10;1.00
19924;DHT22;10124;53.068;18.224;2022-08-01T16:46:24;25.10;1.00
19924;DHT22;10124;53.068;18.224;2022-08-01T16:48:56;24.90;1.00